Luxembourg, Luxembourg
Current Conditions -  °F | °C
As of 2:20 AM on Wednesday 22 Oct 2014 (Local Time) from ELLX Reporting Station
NA  
Wind Chill: 37°   Ceiling: NA
Heat Index: 43°   Visibility: 6mi
Dew Point: 37°   Wind: 10mph
Humidity: 81%   Direction: 280°W
Pressure: 29.97"   Gusts: NA
Location:  49.62°N, 6.12°E
Report Text: ELLX 220020Z AUTO 28009KT 250V320 9999 NDV 06/03 Q1015
Loading
Personal Weather Stations






























Interactive Weather Map
Tropical Storm Tracking
New forecast layout! Learn more

10-Day Weather Forecast

Advertisements
Track Severe Weather on mobile